sensor_id;sensor_type;location;lat;lon;timestamp;P1;durP1;ratioP1;P2;durP2;ratioP2
52380;SDS011;38310;52.796;6.942;2022-08-20T00:00:28;13.35;;;9.05;;
52380;SDS011;38310;52.796;6.942;2022-08-20T00:02:59;15.32;;;9.98;;
52380;SDS011;38310;52.796;6.942;2022-08-20T00:05:30;15.18;;;9.68;;
52380;SDS011;38310;52.796;6.942;2022-08-20T00:07:58;14.57;;;10.82;;
52380;SDS011;38310;52.796;6.942;2022-08-20T00:10:26;13.68;;;10.13;;
52380;SDS011;38310;52.796;6.942;2022-08-20T00:12:53;13.77;;;10.00;;
52380;SDS011;38310;52.796;6.942;2022-08-20T00:15:20;18.00;;;10.05;;
52380;SDS011;38310;52.796;6.942;2022-08-20T00:17:48;13.23;;;10.30;;
52380;SDS011;38310;52.796;6.942;2022-08-20T00:20:18;12.50;;;9.55;;
52380;SDS011;38310;52.796;6.942;2022-08-20T00:22:47;14.38;;;10.35;;
52380;SDS011;38310;52.796;6.942;2022-08-20T00:25:13;13.25;;;8.95;;
52380;SDS011;38310;52.796;6.942;2022-08-20T00:27:40;15.38;;;11.50;;
52380;SDS011;38310;52.796;6.942;2022-08-20T00:30:07;16.25;;;11.48;;
52380;SDS011;38310;52.796;6.942;2022-08-20T00:32:45;18.23;;;12.75;;
52380;SDS011;38310;52.796;6.942;2022-08-20T00:35:14;14.82;;;10.80;;
52380;SDS011;38310;52.796;6.942;2022-08-20T00:37:42;17.55;;;12.63;;
52380;SDS011;38310;52.796;6.942;2022-08-20T00:40:08;16.27;;;11.07;;
52380;SDS011;38310;52.796;6.942;2022-08-20T00:42:43;16.80;;;10.75;;
52380;SDS011;38310;52.796;6.942;2022-08-20T00:45:11;12.90;;;9.63;;
52380;SDS011;38310;52.796;6.942;2022-08-20T00:47:38;17.33;;;11.27;;
52380;SDS011;38310;52.796;6.942;2022-08-20T00:50:08;18.08;;;12.68;;
52380;SDS011;38310;52.796;6.942;2022-08-20T00:52:40;20.55;;;10.30;;
52380;SDS011;38310;52.796;6.942;2022-08-20T00:55:09;16.17;;;11.70;;
52380;SDS011;38310;52.796;6.942;2022-08-20T00:57:39;15.32;;;10.18;;
52380;SDS011;38310;52.796;6.942;2022-08-20T01:00:12;16.92;;;12.68;;
52380;SDS011;38310;52.796;6.942;2022-08-20T01:02:45;16.13;;;11.38;;
52380;SDS011;38310;52.796;6.942;2022-08-20T01:05:11;19.60;;;11.70;;
52380;SDS011;38310;52.796;6.942;2022-08-20T01:07:39;18.27;;;10.77;;
52380;SDS011;38310;52.796;6.942;2022-08-20T01:10:08;13.20;;;10.27;;
52380;SDS011;38310;52.796;6.942;2022-08-20T01:12:44;18.88;;;13.05;;
52380;SDS011;38310;52.796;6.942;2022-08-20T01:15:14;16.27;;;11.32;;
52380;SDS011;38310;52.796;6.942;2022-08-20T01:17:46;16.40;;;12.23;;
52380;SDS011;38310;52.796;6.942;2022-08-20T01:20:24;18.13;;;11.30;;
52380;SDS011;38310;52.796;6.942;2022-08-20T01:31:26;16.83;;;10.55;;
52380;SDS011;38310;52.796;6.942;2022-08-20T01:33:54;16.20;;;11.60;;
52380;SDS011;38310;52.796;6.942;2022-08-20T01:36:46;18.42;;;12.80;;
52380;SDS011;38310;52.796;6.942;2022-08-20T01:39:09;16.15;;;11.60;;
52380;SDS011;38310;52.796;6.942;2022-08-20T01:44:37;15.85;;;11.05;;
52380;SDS011;38310;52.796;6.942;2022-08-20T01:49:39;15.57;;;10.43;;
52380;SDS011;38310;52.796;6.942;2022-08-20T01:52:16;15.05;;;10.63;;
52380;SDS011;38310;52.796;6.942;2022-08-20T01:55:05;18.27;;;11.95;;
52380;SDS011;38310;52.796;6.942;2022-08-20T01:57:32;19.25;;;12.27;;
52380;SDS011;38310;52.796;6.942;2022-08-20T01:59:59;17.83;;;12.18;;
52380;SDS011;38310;52.796;6.942;2022-08-20T02:02:26;19.27;;;10.25;;
52380;SDS011;38310;52.796;6.942;2022-08-20T02:04:52;18.52;;;11.45;;
52380;SDS011;38310;52.796;6.942;2022-08-20T02:07:20;17.02;;;11.13;;
52380;SDS011;38310;52.796;6.942;2022-08-20T02:09:47;20.08;;;12.80;;
52380;SDS011;38310;52.796;6.942;2022-08-20T02:12:13;22.02;;;10.82;;
52380;SDS011;38310;52.796;6.942;2022-08-20T02:14:41;16.55;;;11.15;;
52380;SDS011;38310;52.796;6.942;2022-08-20T02:17:10;15.20;;;10.38;;
52380;SDS011;38310;52.796;6.942;2022-08-20T02:19:38;18.27;;;10.25;;
52380;SDS011;38310;52.796;6.942;2022-08-20T02:22:26;15.30;;;10.48;;
52380;SDS011;38310;52.796;6.942;2022-08-20T02:25:14;18.63;;;11.45;;
52380;SDS011;38310;52.796;6.942;2022-08-20T02:27:42;15.85;;;9.82;;
52380;SDS011;38310;52.796;6.942;2022-08-20T02:30:32;15.80;;;9.73;;
52380;SDS011;38310;52.796;6.942;2022-08-20T02:32:59;15.77;;;10.32;;
52380;SDS011;38310;52.796;6.942;2022-08-20T02:35:26;21.38;;;11.38;;
52380;SDS011;38310;52.796;6.942;2022-08-20T02:37:53;26.02;;;11.85;;
52380;SDS011;38310;52.796;6.942;2022-08-20T02:40:20;19.52;;;10.77;;
52380;SDS011;38310;52.796;6.942;2022-08-20T02:42:50;15.73;;;9.75;;
52380;SDS011;38310;52.796;6.942;2022-08-20T02:45:16;17.20;;;9.60;;
52380;SDS011;38310;52.796;6.942;2022-08-20T02:47:43;22.35;;;10.27;;
52380;SDS011;38310;52.796;6.942;2022-08-20T02:50:10;14.60;;;9.25;;
52380;SDS011;38310;52.796;6.942;2022-08-20T02:52:38;17.17;;;9.43;;
52380;SDS011;38310;52.796;6.942;2022-08-20T02:55:05;15.10;;;10.55;;
52380;SDS011;38310;52.796;6.942;2022-08-20T02:57:31;13.70;;;9.40;;
52380;SDS011;38310;52.796;6.942;2022-08-20T02:59:57;16.02;;;10.65;;
52380;SDS011;38310;52.796;6.942;2022-08-20T03:02:23;15.55;;;9.75;;
52380;SDS011;38310;52.796;6.942;2022-08-20T03:04:49;14.75;;;10.43;;
52380;SDS011;38310;52.796;6.942;2022-08-20T03:07:15;15.23;;;9.02;;
52380;SDS011;38310;52.796;6.942;2022-08-20T03:09:41;15.68;;;10.23;;
52380;SDS011;38310;52.796;6.942;2022-08-20T03:12:07;17.25;;;10.48;;
52380;SDS011;38310;52.796;6.942;2022-08-20T03:14:33;14.60;;;8.98;;
52380;SDS011;38310;52.796;6.942;2022-08-20T03:17:00;15.05;;;9.00;;
52380;SDS011;38310;52.796;6.942;2022-08-20T03:19:26;14.32;;;9.07;;
52380;SDS011;38310;52.796;6.942;2022-08-20T03:21:52;13.07;;;8.57;;
52380;SDS011;38310;52.796;6.942;2022-08-20T03:27:39;17.40;;;11.23;;
52380;SDS011;38310;52.796;6.942;2022-08-20T03:30:06;19.70;;;11.43;;
52380;SDS011;38310;52.796;6.942;2022-08-20T03:32:34;16.85;;;10.10;;
52380;SDS011;38310;52.796;6.942;2022-08-20T03:35:02;18.88;;;11.10;;
52380;SDS011;38310;52.796;6.942;2022-08-20T03:37:29;25.88;;;10.15;;
52380;SDS011;38310;52.796;6.942;2022-08-20T03:39:56;16.10;;;9.60;;
52380;SDS011;38310;52.796;6.942;2022-08-20T03:42:23;15.80;;;9.43;;
52380;SDS011;38310;52.796;6.942;2022-08-20T03:44:49;20.90;;;10.77;;
52380;SDS011;38310;52.796;6.942;2022-08-20T03:47:15;13.98;;;8.82;;
52380;SDS011;38310;52.796;6.942;2022-08-20T03:49:44;15.60;;;9.40;;
52380;SDS011;38310;52.796;6.942;2022-08-20T03:52:10;15.48;;;9.27;;
52380;SDS011;38310;52.796;6.942;2022-08-20T03:54:36;13.27;;;9.32;;
52380;SDS011;38310;52.796;6.942;2022-08-20T03:57:02;14.13;;;8.50;;
52380;SDS011;38310;52.796;6.942;2022-08-20T03:59:29;14.82;;;8.85;;
52380;SDS011;38310;52.796;6.942;2022-08-20T04:01:57;13.30;;;10.40;;
52380;SDS011;38310;52.796;6.942;2022-08-20T04:04:24;14.32;;;9.13;;
52380;SDS011;38310;52.796;6.942;2022-08-20T04:06:50;19.50;;;11.00;;
52380;SDS011;38310;52.796;6.942;2022-08-20T04:09:17;15.30;;;9.43;;
52380;SDS011;38310;52.796;6.942;2022-08-20T04:11:42;17.33;;;9.43;;
52380;SDS011;38310;52.796;6.942;2022-08-20T04:14:09;12.10;;;8.82;;
52380;SDS011;38310;52.796;6.942;2022-08-20T04:16:36;14.25;;;8.95;;
52380;SDS011;38310;52.796;6.942;2022-08-20T04:19:03;11.45;;;7.88;;
52380;SDS011;38310;52.796;6.942;2022-08-20T04:21:30;13.48;;;8.70;;
52380;SDS011;38310;52.796;6.942;2022-08-20T04:23:57;15.48;;;9.65;;
52380;SDS011;38310;52.796;6.942;2022-08-20T04:26:22;16.80;;;9.43;;
52380;SDS011;38310;52.796;6.942;2022-08-20T04:28:48;12.23;;;8.40;;
52380;SDS011;38310;52.796;6.942;2022-08-20T04:31:16;15.45;;;7.88;;
52380;SDS011;38310;52.796;6.942;2022-08-20T04:33:42;15.88;;;9.45;;
52380;SDS011;38310;52.796;6.942;2022-08-20T04:36:08;13.45;;;7.75;;
52380;SDS011;38310;52.796;6.942;2022-08-20T04:38:35;13.95;;;8.30;;
52380;SDS011;38310;52.796;6.942;2022-08-20T04:41:00;17.48;;;9.10;;
52380;SDS011;38310;52.796;6.942;2022-08-20T04:43:30;18.20;;;9.13;;
52380;SDS011;38310;52.796;6.942;2022-08-20T04:45:58;14.18;;;8.25;;
52380;SDS011;38310;52.796;6.942;2022-08-20T04:48:33;16.38;;;9.23;;
52380;SDS011;38310;52.796;6.942;2022-08-20T04:51:04;14.50;;;7.88;;
52380;SDS011;38310;52.796;6.942;2022-08-20T04:53:32;12.15;;;7.55;;
52380;SDS011;38310;52.796;6.942;2022-08-20T04:55:59;13.45;;;8.35;;
52380;SDS011;38310;52.796;6.942;2022-08-20T04:58:28;14.40;;;8.15;;
52380;SDS011;38310;52.796;6.942;2022-08-20T05:01:00;13.63;;;7.13;;
52380;SDS011;38310;52.796;6.942;2022-08-20T05:03:28;19.15;;;8.48;;
52380;SDS011;38310;52.796;6.942;2022-08-20T05:05:55;11.00;;;7.72;;
52380;SDS011;38310;52.796;6.942;2022-08-20T05:08:22;14.27;;;6.85;;
52380;SDS011;38310;52.796;6.942;2022-08-20T05:10:50;13.35;;;6.88;;
52380;SDS011;38310;52.796;6.942;2022-08-20T05:13:17;11.57;;;7.28;;
52380;SDS011;38310;52.796;6.942;2022-08-20T05:15:43;13.95;;;6.85;;
52380;SDS011;38310;52.796;6.942;2022-08-20T05:18:09;16.67;;;7.45;;
52380;SDS011;38310;52.796;6.942;2022-08-20T05:20:37;11.05;;;6.20;;
52380;SDS011;38310;52.796;6.942;2022-08-20T05:23:05;16.17;;;7.32;;
52380;SDS011;38310;52.796;6.942;2022-08-20T05:25:34;8.13;;;6.43;;
52380;SDS011;38310;52.796;6.942;2022-08-20T05:28:03;16.70;;;6.93;;
52380;SDS011;38310;52.796;6.942;2022-08-20T05:30:33;10.10;;;6.28;;
52380;SDS011;38310;52.796;6.942;2022-08-20T05:33:01;10.77;;;6.40;;
52380;SDS011;38310;52.796;6.942;2022-08-20T05:35:29;10.40;;;5.78;;
52380;SDS011;38310;52.796;6.942;2022-08-20T05:37:58;12.32;;;7.32;;
52380;SDS011;38310;52.796;6.942;2022-08-20T05:40:24;12.05;;;6.70;;
52380;SDS011;38310;52.796;6.942;2022-08-20T05:42:50;13.30;;;5.57;;
52380;SDS011;38310;52.796;6.942;2022-08-20T05:45:17;8.85;;;5.50;;
52380;SDS011;38310;52.796;6.942;2022-08-20T05:47:43;6.93;;;5.45;;
52380;SDS011;38310;52.796;6.942;2022-08-20T05:50:10;10.80;;;5.25;;
52380;SDS011;38310;52.796;6.942;2022-08-20T05:52:39;11.60;;;5.90;;
52380;SDS011;38310;52.796;6.942;2022-08-20T05:55:07;14.98;;;5.57;;
52380;SDS011;38310;52.796;6.942;2022-08-20T05:57:34;13.15;;;5.70;;
52380;SDS011;38310;52.796;6.942;2022-08-20T06:00:00;9.30;;;4.88;;
52380;SDS011;38310;52.796;6.942;2022-08-20T06:02:29;10.35;;;5.40;;
52380;SDS011;38310;52.796;6.942;2022-08-20T06:05:13;11.98;;;5.22;;
52380;SDS011;38310;52.796;6.942;2022-08-20T06:07:39;12.02;;;6.00;;
52380;SDS011;38310;52.796;6.942;2022-08-20T06:10:05;9.80;;;5.70;;
52380;SDS011;38310;52.796;6.942;2022-08-20T06:12:33;9.15;;;5.00;;
52380;SDS011;38310;52.796;6.942;2022-08-20T06:14:58;11.88;;;5.47;;
52380;SDS011;38310;52.796;6.942;2022-08-20T06:17:24;11.20;;;5.60;;
52380;SDS011;38310;52.796;6.942;2022-08-20T06:19:51;9.90;;;5.15;;
52380;SDS011;38310;52.796;6.942;2022-08-20T06:22:17;12.68;;;4.75;;
52380;SDS011;38310;52.796;6.942;2022-08-20T06:24:43;10.02;;;4.90;;
52380;SDS011;38310;52.796;6.942;2022-08-20T06:27:11;12.10;;;4.88;;
52380;SDS011;38310;52.796;6.942;2022-08-20T06:29:39;10.45;;;4.40;;
52380;SDS011;38310;52.796;6.942;2022-08-20T06:32:05;10.98;;;5.75;;
52380;SDS011;38310;52.796;6.942;2022-08-20T06:34:31;17.58;;;5.45;;
52380;SDS011;38310;52.796;6.942;2022-08-20T06:36:58;9.63;;;4.38;;
52380;SDS011;38310;52.796;6.942;2022-08-20T06:39:24;8.90;;;4.47;;
52380;SDS011;38310;52.796;6.942;2022-08-20T06:41:52;12.65;;;4.38;;
52380;SDS011;38310;52.796;6.942;2022-08-20T06:44:19;10.25;;;4.20;;
52380;SDS011;38310;52.796;6.942;2022-08-20T06:46:45;9.15;;;4.60;;
52380;SDS011;38310;52.796;6.942;2022-08-20T06:49:11;8.77;;;4.07;;
52380;SDS011;38310;52.796;6.942;2022-08-20T06:51:37;11.30;;;3.72;;
52380;SDS011;38310;52.796;6.942;2022-08-20T06:54:03;14.80;;;4.03;;
52380;SDS011;38310;52.796;6.942;2022-08-20T06:56:30;9.73;;;4.47;;
52380;SDS011;38310;52.796;6.942;2022-08-20T06:58:56;8.95;;;3.97;;
52380;SDS011;38310;52.796;6.942;2022-08-20T07:01:22;9.05;;;3.47;;
52380;SDS011;38310;52.796;6.942;2022-08-20T07:03:48;10.40;;;3.38;;
52380;SDS011;38310;52.796;6.942;2022-08-20T07:06:14;10.50;;;3.63;;
52380;SDS011;38310;52.796;6.942;2022-08-20T07:08:41;9.70;;;3.30;;
52380;SDS011;38310;52.796;6.942;2022-08-20T07:11:07;11.10;;;3.70;;
52380;SDS011;38310;52.796;6.942;2022-08-20T07:13:33;9.25;;;3.08;;
52380;SDS011;38310;52.796;6.942;2022-08-20T07:16:02;10.02;;;3.25;;
52380;SDS011;38310;52.796;6.942;2022-08-20T07:18:29;11.27;;;4.43;;
52380;SDS011;38310;52.796;6.942;2022-08-20T07:20:55;7.63;;;3.20;;
52380;SDS011;38310;52.796;6.942;2022-08-20T07:23:22;6.97;;;2.70;;
52380;SDS011;38310;52.796;6.942;2022-08-20T07:25:51;8.18;;;3.10;;
52380;SDS011;38310;52.796;6.942;2022-08-20T07:28:21;7.53;;;3.03;;
52380;SDS011;38310;52.796;6.942;2022-08-20T07:30:48;8.98;;;2.97;;
52380;SDS011;38310;52.796;6.942;2022-08-20T07:33:33;10.85;;;3.35;;
52380;SDS011;38310;52.796;6.942;2022-08-20T07:36:00;10.40;;;3.47;;
52380;SDS011;38310;52.796;6.942;2022-08-20T07:38:28;6.30;;;3.25;;
52380;SDS011;38310;52.796;6.942;2022-08-20T07:41:03;8.90;;;3.40;;
52380;SDS011;38310;52.796;6.942;2022-08-20T07:43:34;11.60;;;3.50;;
52380;SDS011;38310;52.796;6.942;2022-08-20T07:46:00;7.45;;;3.03;;
52380;SDS011;38310;52.796;6.942;2022-08-20T07:48:31;10.85;;;2.95;;
52380;SDS011;38310;52.796;6.942;2022-08-20T07:50:59;6.70;;;2.75;;
52380;SDS011;38310;52.796;6.942;2022-08-20T07:53:27;4.93;;;2.17;;
52380;SDS011;38310;52.796;6.942;2022-08-20T07:55:54;9.07;;;2.80;;
52380;SDS011;38310;52.796;6.942;2022-08-20T07:58:20;9.15;;;3.05;;
52380;SDS011;38310;52.796;6.942;2022-08-20T08:00:49;8.85;;;2.90;;
52380;SDS011;38310;52.796;6.942;2022-08-20T08:03:16;6.88;;;2.25;;
52380;SDS011;38310;52.796;6.942;2022-08-20T08:05:43;14.63;;;2.55;;
52380;SDS011;38310;52.796;6.942;2022-08-20T08:08:12;7.18;;;2.38;;
52380;SDS011;38310;52.796;6.942;2022-08-20T08:10:51;6.22;;;1.70;;
52380;SDS011;38310;52.796;6.942;2022-08-20T08:13:24;8.80;;;2.13;;
52380;SDS011;38310;52.796;6.942;2022-08-20T08:15:53;9.00;;;2.45;;
52380;SDS011;38310;52.796;6.942;2022-08-20T08:18:23;9.85;;;1.92;;
52380;SDS011;38310;52.796;6.942;2022-08-20T08:20:51;6.57;;;1.63;;
52380;SDS011;38310;52.796;6.942;2022-08-20T08:23:19;6.15;;;1.80;;
52380;SDS011;38310;52.796;6.942;2022-08-20T08:25:46;4.15;;;1.67;;
52380;SDS011;38310;52.796;6.942;2022-08-20T08:28:15;7.25;;;2.05;;
52380;SDS011;38310;52.796;6.942;2022-08-20T08:30:42;9.13;;;1.77;;
52380;SDS011;38310;52.796;6.942;2022-08-20T08:33:17;8.80;;;1.73;;
52380;SDS011;38310;52.796;6.942;2022-08-20T08:35:58;7.60;;;2.50;;
52380;SDS011;38310;52.796;6.942;2022-08-20T08:38:28;9.80;;;2.17;;
52380;SDS011;38310;52.796;6.942;2022-08-20T08:40:56;6.88;;;2.00;;
52380;SDS011;38310;52.796;6.942;2022-08-20T08:43:26;10.40;;;2.13;;
52380;SDS011;38310;52.796;6.942;2022-08-20T08:46:02;5.40;;;1.70;;
52380;SDS011;38310;52.796;6.942;2022-08-20T08:48:35;6.68;;;1.80;;
52380;SDS011;38310;52.796;6.942;2022-08-20T08:51:07;5.55;;;1.50;;
52380;SDS011;38310;52.796;6.942;2022-08-20T08:53:41;4.80;;;1.40;;
52380;SDS011;38310;52.796;6.942;2022-08-20T08:56:13;6.60;;;1.52;;
52380;SDS011;38310;52.796;6.942;2022-08-20T08:58:39;5.15;;;1.60;;
52380;SDS011;38310;52.796;6.942;2022-08-20T09:01:07;5.95;;;1.20;;
52380;SDS011;38310;52.796;6.942;2022-08-20T09:03:37;9.93;;;1.50;;
52380;SDS011;38310;52.796;6.942;2022-08-20T09:06:04;6.72;;;1.60;;
52380;SDS011;38310;52.796;6.942;2022-08-20T09:08:36;6.03;;;1.30;;
52380;SDS011;38310;52.796;6.942;2022-08-20T09:11:09;6.75;;;1.23;;
52380;SDS011;38310;52.796;6.942;2022-08-20T09:13:35;4.00;;;1.50;;
52380;SDS011;38310;52.796;6.942;2022-08-20T09:16:01;5.60;;;1.45;;
52380;SDS011;38310;52.796;6.942;2022-08-20T09:18:27;3.38;;;1.27;;
52380;SDS011;38310;52.796;6.942;2022-08-20T09:20:54;6.32;;;1.17;;
52380;SDS011;38310;52.796;6.942;2022-08-20T09:23:19;4.90;;;1.75;;
52380;SDS011;38310;52.796;6.942;2022-08-20T09:25:45;5.38;;;1.20;;
52380;SDS011;38310;52.796;6.942;2022-08-20T09:28:11;5.68;;;1.30;;
52380;SDS011;38310;52.796;6.942;2022-08-20T09:30:37;6.97;;;1.52;;
52380;SDS011;38310;52.796;6.942;2022-08-20T09:33:03;4.50;;;1.40;;
52380;SDS011;38310;52.796;6.942;2022-08-20T09:35:29;6.50;;;1.27;;
52380;SDS011;38310;52.796;6.942;2022-08-20T09:37:54;3.55;;;1.23;;
52380;SDS011;38310;52.796;6.942;2022-08-20T09:40:20;5.13;;;1.02;;
52380;SDS011;38310;52.796;6.942;2022-08-20T09:42:46;3.95;;;1.15;;
52380;SDS011;38310;52.796;6.942;2022-08-20T09:45:13;3.53;;;1.30;;
52380;SDS011;38310;52.796;6.942;2022-08-20T09:47:40;5.63;;;1.58;;
52380;SDS011;38310;52.796;6.942;2022-08-20T09:50:06;3.35;;;0.80;;
52380;SDS011;38310;52.796;6.942;2022-08-20T09:52:34;3.13;;;1.15;;
52380;SDS011;38310;52.796;6.942;2022-08-20T09:55:10;4.28;;;1.20;;
52380;SDS011;38310;52.796;6.942;2022-08-20T09:57:45;4.05;;;1.08;;
52380;SDS011;38310;52.796;6.942;2022-08-20T10:00:12;3.72;;;0.90;;
52380;SDS011;38310;52.796;6.942;2022-08-20T10:02:39;3.25;;;0.90;;
52380;SDS011;38310;52.796;6.942;2022-08-20T10:05:05;4.10;;;1.10;;
52380;SDS011;38310;52.796;6.942;2022-08-20T10:07:31;4.40;;;1.20;;
52380;SDS011;38310;52.796;6.942;2022-08-20T10:09:59;4.68;;;1.08;;
52380;SDS011;38310;52.796;6.942;2022-08-20T10:12:26;4.40;;;1.13;;
52380;SDS011;38310;52.796;6.942;2022-08-20T10:14:52;4.72;;;1.40;;
52380;SDS011;38310;52.796;6.942;2022-08-20T10:17:19;3.67;;;0.77;;
52380;SDS011;38310;52.796;6.942;2022-08-20T10:19:45;4.80;;;1.13;;
52380;SDS011;38310;52.796;6.942;2022-08-20T10:22:11;4.53;;;1.10;;
52380;SDS011;38310;52.796;6.942;2022-08-20T10:24:37;4.63;;;1.10;;
52380;SDS011;38310;52.796;6.942;2022-08-20T10:27:03;4.78;;;1.23;;
52380;SDS011;38310;52.796;6.942;2022-08-20T10:29:29;2.63;;;0.77;;
52380;SDS011;38310;52.796;6.942;2022-08-20T10:31:56;4.88;;;1.08;;
52380;SDS011;38310;52.796;6.942;2022-08-20T10:34:31;7.35;;;1.40;;
52380;SDS011;38310;52.796;6.942;2022-08-20T10:36:57;3.45;;;1.10;;
52380;SDS011;38310;52.796;6.942;2022-08-20T10:39:23;5.60;;;1.25;;
52380;SDS011;38310;52.796;6.942;2022-08-20T10:41:51;3.20;;;1.08;;
52380;SDS011;38310;52.796;6.942;2022-08-20T10:44:17;3.15;;;0.90;;
52380;SDS011;38310;52.796;6.942;2022-08-20T10:46:42;2.65;;;1.35;;
52380;SDS011;38310;52.796;6.942;2022-08-20T10:49:09;3.45;;;0.90;;
52380;SDS011;38310;52.796;6.942;2022-08-20T10:51:36;6.72;;;1.48;;
52380;SDS011;38310;52.796;6.942;2022-08-20T10:54:02;4.32;;;1.52;;
52380;SDS011;38310;52.796;6.942;2022-08-20T10:56:28;4.05;;;1.20;;
52380;SDS011;38310;52.796;6.942;2022-08-20T10:58:54;3.80;;;1.17;;
52380;SDS011;38310;52.796;6.942;2022-08-20T11:01:20;5.38;;;1.25;;
52380;SDS011;38310;52.796;6.942;2022-08-20T11:03:45;3.83;;;1.08;;
52380;SDS011;38310;52.796;6.942;2022-08-20T11:06:11;3.53;;;0.80;;
52380;SDS011;38310;52.796;6.942;2022-08-20T11:08:37;7.47;;;1.25;;
52380;SDS011;38310;52.796;6.942;2022-08-20T11:11:03;4.15;;;0.80;;
52380;SDS011;38310;52.796;6.942;2022-08-20T11:13:30;3.67;;;0.93;;
52380;SDS011;38310;52.796;6.942;2022-08-20T11:15:57;4.28;;;1.08;;
52380;SDS011;38310;52.796;6.942;2022-08-20T11:18:22;6.03;;;1.20;;
52380;SDS011;38310;52.796;6.942;2022-08-20T11:20:48;6.40;;;1.27;;
52380;SDS011;38310;52.796;6.942;2022-08-20T11:23:14;6.63;;;1.23;;
52380;SDS011;38310;52.796;6.942;2022-08-20T11:25:40;5.35;;;1.30;;
52380;SDS011;38310;52.796;6.942;2022-08-20T11:28:08;5.30;;;1.20;;
52380;SDS011;38310;52.796;6.942;2022-08-20T11:30:35;3.63;;;1.20;;
52380;SDS011;38310;52.796;6.942;2022-08-20T11:33:01;4.20;;;1.00;;
52380;SDS011;38310;52.796;6.942;2022-08-20T11:35:28;3.80;;;1.00;;
52380;SDS011;38310;52.796;6.942;2022-08-20T11:37:56;5.88;;;1.10;;
52380;SDS011;38310;52.796;6.942;2022-08-20T11:40:22;6.65;;;1.52;;
52380;SDS011;38310;52.796;6.942;2022-08-20T11:42:48;3.72;;;0.98;;
52380;SDS011;38310;52.796;6.942;2022-08-20T11:45:14;4.53;;;1.08;;
52380;SDS011;38310;52.796;6.942;2022-08-20T11:47:40;6.72;;;1.30;;
52380;SDS011;38310;52.796;6.942;2022-08-20T11:50:07;6.47;;;1.30;;
52380;SDS011;38310;52.796;6.942;2022-08-20T11:52:35;6.00;;;1.20;;
52380;SDS011;38310;52.796;6.942;2022-08-20T11:55:00;8.52;;;1.10;;
52380;SDS011;38310;52.796;6.942;2022-08-20T11:57:28;4.57;;;1.27;;
52380;SDS011;38310;52.796;6.942;2022-08-20T11:59:56;4.65;;;1.08;;
52380;SDS011;38310;52.796;6.942;2022-08-20T12:02:23;3.55;;;1.20;;
52380;SDS011;38310;52.796;6.942;2022-08-20T12:04:49;4.43;;;1.40;;
52380;SDS011;38310;52.796;6.942;2022-08-20T12:07:19;4.65;;;1.15;;
52380;SDS011;38310;52.796;6.942;2022-08-20T12:09:47;3.85;;;1.02;;
52380;SDS011;38310;52.796;6.942;2022-08-20T12:12:13;4.13;;;1.20;;
52380;SDS011;38310;52.796;6.942;2022-08-20T12:14:39;4.88;;;0.90;;
52380;SDS011;38310;52.796;6.942;2022-08-20T12:17:06;3.35;;;0.77;;
52380;SDS011;38310;52.796;6.942;2022-08-20T12:19:43;3.88;;;1.15;;
52380;SDS011;38310;52.796;6.942;2022-08-20T12:22:09;5.10;;;1.15;;
52380;SDS011;38310;52.796;6.942;2022-08-20T12:24:35;5.85;;;0.90;;
52380;SDS011;38310;52.796;6.942;2022-08-20T12:27:24;4.60;;;0.93;;
52380;SDS011;38310;52.796;6.942;2022-08-20T12:29:52;4.20;;;1.13;;
52380;SDS011;38310;52.796;6.942;2022-08-20T12:32:21;3.80;;;1.10;;
52380;SDS011;38310;52.796;6.942;2022-08-20T12:34:49;4.30;;;1.02;;
52380;SDS011;38310;52.796;6.942;2022-08-20T12:37:16;5.35;;;1.17;;
52380;SDS011;38310;52.796;6.942;2022-08-20T12:39:45;2.90;;;1.45;;
52380;SDS011;38310;52.796;6.942;2022-08-20T12:42:12;3.88;;;1.13;;
52380;SDS011;38310;52.796;6.942;2022-08-20T12:44:38;3.50;;;1.20;;
52380;SDS011;38310;52.796;6.942;2022-08-20T12:47:11;3.25;;;0.90;;
52380;SDS011;38310;52.796;6.942;2022-08-20T12:49:50;4.70;;;1.15;;
52380;SDS011;38310;52.796;6.942;2022-08-20T12:52:20;4.18;;;1.08;;
52380;SDS011;38310;52.796;6.942;2022-08-20T12:54:48;3.13;;;0.93;;
52380;SDS011;38310;52.796;6.942;2022-08-20T12:57:27;4.07;;;1.10;;
52380;SDS011;38310;52.796;6.942;2022-08-20T13:00:08;5.43;;;1.20;;
52380;SDS011;38310;52.796;6.942;2022-08-20T13:02:35;4.50;;;1.20;;
52380;SDS011;38310;52.796;6.942;2022-08-20T13:05:03;2.90;;;1.20;;
52380;SDS011;38310;52.796;6.942;2022-08-20T13:07:30;4.65;;;1.10;;
52380;SDS011;38310;52.796;6.942;2022-08-20T13:09:57;4.28;;;1.20;;
52380;SDS011;38310;52.796;6.942;2022-08-20T13:12:23;5.38;;;1.30;;
52380;SDS011;38310;52.796;6.942;2022-08-20T13:14:49;5.07;;;1.10;;
52380;SDS011;38310;52.796;6.942;2022-08-20T13:17:15;7.00;;;1.30;;
52380;SDS011;38310;52.796;6.942;2022-08-20T13:19:42;5.57;;;1.25;;
52380;SDS011;38310;52.796;6.942;2022-08-20T13:22:09;4.53;;;1.52;;
52380;SDS011;38310;52.796;6.942;2022-08-20T13:24:35;3.17;;;1.10;;
52380;SDS011;38310;52.796;6.942;2022-08-20T13:27:03;4.13;;;1.45;;
52380;SDS011;38310;52.796;6.942;2022-08-20T13:29:30;4.18;;;1.10;;
52380;SDS011;38310;52.796;6.942;2022-08-20T13:31:56;3.70;;;1.10;;
52380;SDS011;38310;52.796;6.942;2022-08-20T13:34:22;3.28;;;1.27;;
52380;SDS011;38310;52.796;6.942;2022-08-20T13:36:48;6.72;;;1.30;;
52380;SDS011;38310;52.796;6.942;2022-08-20T13:39:13;4.13;;;1.25;;
52380;SDS011;38310;52.796;6.942;2022-08-20T13:41:39;2.92;;;1.25;;
52380;SDS011;38310;52.796;6.942;2022-08-20T13:44:05;5.22;;;1.35;;
52380;SDS011;38310;52.796;6.942;2022-08-20T13:46:31;4.72;;;1.42;;
52380;SDS011;38310;52.796;6.942;2022-08-20T13:48:56;5.43;;;1.40;;
52380;SDS011;38310;52.796;6.942;2022-08-20T13:51:22;3.92;;;1.33;;
52380;SDS011;38310;52.796;6.942;2022-08-20T13:53:48;5.25;;;1.13;;
52380;SDS011;38310;52.796;6.942;2022-08-20T13:56:13;7.00;;;1.13;;
52380;SDS011;38310;52.796;6.942;2022-08-20T13:58:39;3.80;;;1.15;;
52380;SDS011;38310;52.796;6.942;2022-08-20T14:01:05;4.03;;;1.33;;
52380;SDS011;38310;52.796;6.942;2022-08-20T14:03:31;2.53;;;1.23;;
52380;SDS011;38310;52.796;6.942;2022-08-20T14:05:59;5.22;;;1.30;;
52380;SDS011;38310;52.796;6.942;2022-08-20T14:08:26;5.00;;;1.40;;
52380;SDS011;38310;52.796;6.942;2022-08-20T14:10:51;4.63;;;1.65;;
52380;SDS011;38310;52.796;6.942;2022-08-20T14:13:19;5.22;;;1.30;;
52380;SDS011;38310;52.796;6.942;2022-08-20T14:15:46;3.85;;;1.35;;
52380;SDS011;38310;52.796;6.942;2022-08-20T14:18:12;5.63;;;1.58;;
52380;SDS011;38310;52.796;6.942;2022-08-20T14:20:40;5.20;;;1.63;;
52380;SDS011;38310;52.796;6.942;2022-08-20T14:23:06;4.78;;;1.52;;
52380;SDS011;38310;52.796;6.942;2022-08-20T14:25:32;2.83;;;1.35;;
52380;SDS011;38310;52.796;6.942;2022-08-20T14:28:02;5.38;;;1.58;;
52380;SDS011;38310;52.796;6.942;2022-08-20T14:30:35;3.45;;;1.40;;
52380;SDS011;38310;52.796;6.942;2022-08-20T14:33:01;4.72;;;1.50;;
52380;SDS011;38310;52.796;6.942;2022-08-20T14:35:26;6.82;;;1.67;;
52380;SDS011;38310;52.796;6.942;2022-08-20T14:37:52;2.78;;;1.42;;
52380;SDS011;38310;52.796;6.942;2022-08-20T14:40:20;3.72;;;1.60;;
52380;SDS011;38310;52.796;6.942;2022-08-20T14:42:49;4.68;;;1.67;;
52380;SDS011;38310;52.796;6.942;2022-08-20T14:45:15;4.43;;;1.85;;
52380;SDS011;38310;52.796;6.942;2022-08-20T14:47:43;7.05;;;1.30;;
52380;SDS011;38310;52.796;6.942;2022-08-20T14:50:15;4.18;;;1.38;;
52380;SDS011;38310;52.796;6.942;2022-08-20T14:52:46;5.13;;;1.52;;
52380;SDS011;38310;52.796;6.942;2022-08-20T14:55:13;5.15;;;1.50;;
52380;SDS011;38310;52.796;6.942;2022-08-20T14:57:41;5.30;;;1.70;;
52380;SDS011;38310;52.796;6.942;2022-08-20T15:00:08;5.63;;;1.50;;